createdAt,value
2019-06-20T00:00:37.289Z,0.00
2019-06-20T00:01:37.312Z,0.00
2019-06-20T00:02:37.290Z,0.00
2019-06-20T00:03:37.299Z,0.00
2019-06-20T00:04:37.291Z,0.00
2019-06-20T00:05:37.292Z,0.00
2019-06-20T00:06:37.326Z,0.00
2019-06-20T00:07:37.299Z,0.00
2019-06-20T00:08:37.332Z,0.00
2019-06-20T00:09:37.297Z,0.00
2019-06-20T00:10:37.306Z,0.00
2019-06-20T00:11:37.310Z,0.00
2019-06-20T00:12:37.340Z,0.00
2019-06-20T00:13:37.310Z,0.00
2019-06-20T00:14:37.378Z,0.00
2019-06-20T00:15:37.317Z,0.00
2019-06-20T00:16:37.319Z,0.00
2019-06-20T00:17:37.348Z,0.00
2019-06-20T00:18:37.320Z,0.00
2019-06-20T00:19:37.329Z,0.00
2019-06-20T00:20:37.331Z,0.00
2019-06-20T00:21:37.339Z,0.00
2019-06-20T00:22:37.379Z,0.00
2019-06-20T00:23:37.328Z,0.00
2019-06-20T00:24:37.340Z,0.00
2019-06-20T00:25:37.336Z,0.00
2019-06-20T00:26:37.366Z,0.00
2019-06-20T00:27:37.343Z,0.00
2019-06-20T00:28:37.386Z,0.00
2019-06-20T00:29:37.342Z,0.00
2019-06-20T00:30:37.355Z,0.00
2019-06-20T00:31:37.359Z,0.00
2019-06-20T00:32:37.384Z,0.00
2019-06-20T00:33:37.356Z,0.00
2019-06-20T00:34:37.377Z,0.00
2019-06-20T00:35:37.359Z,0.00
2019-06-20T00:36:37.364Z,0.00
2019-06-20T00:37:37.403Z,0.00
2019-06-20T00:38:37.407Z,0.00
2019-06-20T00:39:37.374Z,0.00
2019-06-20T00:40:37.381Z,0.00
2019-06-20T00:41:37.440Z,0.00
2019-06-20T00:42:37.380Z,0.00
2019-06-20T00:43:37.411Z,0.00
2019-06-20T00:44:37.391Z,0.00
2019-06-20T00:45:37.397Z,0.00
2019-06-20T00:46:37.381Z,0.00
2019-06-20T00:47:37.396Z,0.00
2019-06-20T00:48:37.429Z,0.00
2019-06-20T00:49:37.392Z,0.00
2019-06-20T00:50:37.396Z,0.00
2019-06-20T00:51:37.398Z,0.00
2019-06-20T00:52:37.405Z,0.00
2019-06-20T00:53:37.425Z,0.00
2019-06-20T00:54:37.415Z,0.00
2019-06-20T00:55:37.412Z,0.00
2019-06-20T00:56:37.423Z,0.00
2019-06-20T00:57:37.415Z,0.00
2019-06-20T00:58:37.439Z,0.00
2019-06-20T00:59:37.426Z,0.00
2019-06-20T01:00:37.415Z,0.00
2019-06-20T01:01:37.421Z,0.00
2019-06-20T01:02:37.433Z,0.00
2019-06-20T01:03:37.454Z,0.00
2019-06-20T01:04:37.426Z,0.00
2019-06-20T01:05:37.432Z,0.00
2019-06-20T01:06:37.426Z,0.00
2019-06-20T01:07:37.444Z,0.00
2019-06-20T01:08:37.466Z,0.00
2019-06-20T01:09:37.450Z,0.00
2019-06-20T01:10:37.440Z,0.00
2019-06-20T01:11:37.458Z,0.00
2019-06-20T01:12:37.452Z,0.00
2019-06-20T01:13:37.485Z,0.00
2019-06-20T01:14:37.480Z,0.00
2019-06-20T01:15:37.456Z,0.00
2019-06-20T01:16:37.466Z,0.00
2019-06-20T01:17:37.453Z,0.00
2019-06-20T01:18:37.486Z,0.00
2019-06-20T01:19:37.509Z,0.00
2019-06-20T01:20:37.465Z,0.00
2019-06-20T01:21:37.465Z,0.00
2019-06-20T01:22:37.467Z,0.00
2019-06-20T01:23:37.498Z,0.00
2019-06-20T01:24:37.478Z,0.00
2019-06-20T01:25:37.492Z,0.00
2019-06-20T01:26:37.485Z,0.00
2019-06-20T01:27:37.480Z,0.00
2019-06-20T01:28:37.521Z,0.00
2019-06-20T01:29:37.480Z,0.00
2019-06-20T01:30:37.487Z,0.00
2019-06-20T01:31:37.483Z,0.00
2019-06-20T01:32:37.499Z,0.00
2019-06-20T01:33:37.516Z,0.00
2019-06-20T01:34:37.516Z,0.00
2019-06-20T01:35:37.500Z,0.00
2019-06-20T01:36:37.488Z,0.00
2019-06-20T01:37:37.499Z,0.00
2019-06-20T01:38:37.495Z,0.00
2019-06-20T01:39:37.530Z,0.00
2019-06-20T01:40:37.518Z,0.00
2019-06-20T01:41:37.506Z,0.00
2019-06-20T01:42:37.507Z,0.00
2019-06-20T01:43:50.273Z,0.00
2019-06-20T01:44:37.509Z,0.00
2019-06-20T01:45:37.521Z,0.00
2019-06-20T01:46:37.513Z,0.00
2019-06-20T01:47:37.510Z,0.00
2019-06-20T01:48:37.545Z,0.00
2019-06-20T01:49:37.525Z,0.00
2019-06-20T01:50:37.526Z,0.00
2019-06-20T01:51:37.517Z,0.00
2019-06-20T01:52:37.542Z,0.00
2019-06-20T01:53:37.555Z,0.00
2019-06-20T01:54:37.539Z,0.00
2019-06-20T01:55:37.527Z,0.00
2019-06-20T01:56:37.534Z,0.00
2019-06-20T01:57:37.577Z,0.00
2019-06-20T01:58:37.546Z,0.00
2019-06-20T01:59:37.564Z,0.00
2019-06-20T02:00:37.545Z,0.00
2019-06-20T02:01:37.541Z,0.00
2019-06-20T02:02:37.541Z,0.00
2019-06-20T02:03:37.586Z,0.00
2019-06-20T02:04:37.554Z,0.00
2019-06-20T02:05:37.551Z,0.00
2019-06-20T02:06:37.545Z,0.00
2019-06-20T02:07:37.581Z,0.00
2019-06-20T02:08:37.558Z,0.00
2019-06-20T02:09:37.584Z,0.00
2019-06-20T02:10:37.554Z,0.00
2019-06-20T02:11:37.555Z,0.00
2019-06-20T02:12:37.562Z,0.00
2019-06-20T02:13:37.600Z,0.00
2019-06-20T02:14:37.605Z,0.00
2019-06-20T02:15:37.578Z,4.00
2019-06-20T02:16:37.566Z,4.00
2019-06-20T02:17:37.593Z,4.00
2019-06-20T02:18:37.570Z,4.00
2019-06-20T02:19:37.607Z,4.00
2019-06-20T02:20:37.573Z,4.00
2019-06-20T02:21:37.577Z,4.00
2019-06-20T02:22:37.571Z,8.00
2019-06-20T02:23:37.579Z,4.00
2019-06-20T02:24:37.575Z,8.00
2019-06-20T02:25:37.614Z,8.00
2019-06-20T02:26:37.587Z,8.00
2019-06-20T02:27:37.581Z,8.00
2019-06-20T02:28:37.593Z,12.00
2019-06-20T02:29:37.600Z,12.00
2019-06-20T02:30:37.639Z,16.00
2019-06-20T02:31:37.593Z,16.00
2019-06-20T02:32:37.594Z,20.00
2019-06-20T02:33:37.601Z,20.00
2019-06-20T02:34:37.603Z,24.00
2019-06-20T02:35:37.632Z,28.00
2019-06-20T02:36:37.606Z,32.00
2019-06-20T02:37:37.600Z,32.00
2019-06-20T02:38:37.602Z,36.00
2019-06-20T02:39:37.610Z,40.00
2019-06-20T02:40:37.647Z,40.00
2019-06-20T02:41:37.609Z,40.00
2019-06-20T02:42:37.637Z,40.00
2019-06-20T02:43:37.616Z,44.00
2019-06-20T02:44:37.630Z,40.00
2019-06-20T02:45:37.660Z,40.00
2019-06-20T02:46:37.616Z,44.00
2019-06-20T02:47:37.619Z,44.00
2019-06-20T02:48:37.623Z,44.00
2019-06-20T02:49:37.624Z,44.00
2019-06-20T02:50:37.746Z,36.00
2019-06-20T02:51:37.627Z,36.00
2019-06-20T02:52:37.635Z,44.00
2019-06-20T02:53:37.640Z,60.00
2019-06-20T02:54:37.646Z,80.00
2019-06-20T02:55:37.668Z,104.00
2019-06-20T02:56:37.637Z,112.00
2019-06-20T02:57:37.641Z,108.00
2019-06-20T02:58:37.648Z,88.00
2019-06-20T02:59:37.652Z,88.00
2019-06-20T03:00:37.677Z,92.00
2019-06-20T03:01:37.647Z,104.00
2019-06-20T03:02:37.654Z,112.00
2019-06-20T03:03:37.656Z,108.00
2019-06-20T03:04:37.656Z,104.00
2019-06-20T03:05:37.686Z,100.00
2019-06-20T03:06:37.664Z,96.00
2019-06-20T03:07:37.660Z,96.00
2019-06-20T03:08:37.713Z,100.00
2019-06-20T03:09:37.666Z,108.00
2019-06-20T03:10:37.699Z,120.00
2019-06-20T03:11:37.667Z,124.00
2019-06-20T03:12:37.672Z,124.00
2019-06-20T03:13:37.667Z,128.00
2019-06-20T03:14:45.554Z,124.00
2019-06-20T03:15:37.706Z,124.00
2019-06-20T03:16:37.677Z,128.00
2019-06-20T03:17:37.674Z,132.00
2019-06-20T03:18:37.683Z,136.00
2019-06-20T03:19:37.677Z,140.00
2019-06-20T03:20:37.712Z,140.00
2019-06-20T03:21:37.700Z,136.00
2019-06-20T03:22:37.680Z,132.00
2019-06-20T03:23:37.696Z,120.00
2019-06-20T03:24:37.700Z,112.00
2019-06-20T03:25:37.724Z,112.00
2019-06-20T03:26:37.699Z,104.00
2019-06-20T03:27:37.688Z,104.00
2019-06-20T03:28:37.695Z,100.00
2019-06-20T03:29:37.755Z,100.00
2019-06-20T03:30:37.725Z,96.00
2019-06-20T03:31:37.698Z,92.00
2019-06-20T03:32:37.695Z,88.00
2019-06-20T03:33:37.707Z,88.00
2019-06-20T03:34:37.701Z,88.00
2019-06-20T03:35:37.749Z,88.00
2019-06-20T03:36:37.712Z,92.00
2019-06-20T03:37:37.710Z,92.00
2019-06-20T03:38:37.711Z,100.00
2019-06-20T03:39:37.707Z,100.00
2019-06-20T03:40:37.734Z,104.00
2019-06-20T03:41:37.710Z,112.00
2019-06-20T03:42:37.735Z,116.00
2019-06-20T03:43:37.764Z,120.00
2019-06-20T03:44:37.716Z,124.00
2019-06-20T03:45:37.753Z,132.00
2019-06-20T03:46:37.717Z,140.00
2019-06-20T03:47:37.715Z,140.00
2019-06-20T03:48:37.721Z,152.00
2019-06-20T03:49:37.718Z,160.00
2019-06-20T03:50:37.767Z,168.00
2019-06-20T03:51:37.720Z,176.00
2019-06-20T03:52:37.726Z,188.00
2019-06-20T03:53:37.728Z,204.00
2019-06-20T03:54:37.760Z,212.00
2019-06-20T03:55:37.756Z,224.00
2019-06-20T03:56:37.735Z,232.00
2019-06-20T03:57:37.732Z,240.00
2019-06-20T03:58:37.731Z,256.00
2019-06-20T03:59:37.731Z,280.00
2019-06-20T04:00:37.761Z,312.00
2019-06-20T04:01:37.737Z,344.00
2019-06-20T04:02:37.741Z,376.00
2019-06-20T04:03:37.743Z,420.00
2019-06-20T04:04:37.736Z,464.00
2019-06-20T04:05:37.772Z,516.00
2019-06-20T04:06:37.744Z,576.00
2019-06-20T04:07:37.759Z,640.00
2019-06-20T04:08:37.747Z,720.00
2019-06-20T04:09:37.742Z,792.00
2019-06-20T04:10:37.772Z,868.00
2019-06-20T04:11:37.747Z,956.00
2019-06-20T04:12:37.743Z,1036.00
2019-06-20T04:13:37.744Z,1124.00
2019-06-20T04:14:37.755Z,1216.00
2019-06-20T04:15:37.779Z,1336.00
2019-06-20T04:16:37.780Z,1480.00
2019-06-20T04:17:37.755Z,1660.00
2019-06-20T04:18:37.749Z,1880.00
2019-06-20T04:19:37.755Z,2128.00
2019-06-20T04:20:37.755Z,2396.00
2019-06-20T04:21:37.792Z,2664.00
2019-06-20T04:22:37.769Z,2904.00
2019-06-20T04:23:37.753Z,3128.00
2019-06-20T04:24:37.755Z,3332.00
2019-06-20T04:25:37.754Z,3512.00
2019-06-20T04:26:37.787Z,3680.00
2019-06-20T04:27:37.756Z,3872.00
2019-06-20T04:28:37.760Z,4136.00
2019-06-20T04:29:37.755Z,4476.00
2019-06-20T04:30:37.770Z,4924.00
2019-06-20T04:31:37.794Z,5516.00
2019-06-20T04:32:37.761Z,6216.00
2019-06-20T04:33:37.763Z,6900.00
2019-06-20T04:34:37.772Z,7496.00
2019-06-20T04:35:37.769Z,8000.00
2019-06-20T04:36:37.801Z,8420.00
2019-06-20T04:37:37.764Z,8788.00
2019-06-20T04:38:37.772Z,9080.00
2019-06-20T04:39:37.769Z,9312.00
2019-06-20T04:40:37.767Z,9452.00
2019-06-20T04:41:37.802Z,9540.00
2019-06-20T04:42:37.774Z,9576.00
2019-06-20T04:43:37.781Z,9544.00
2019-06-20T04:44:37.775Z,9480.00
2019-06-20T04:45:37.773Z,9372.00
2019-06-20T04:46:37.805Z,9220.00
2019-06-20T04:47:37.798Z,9044.00
2019-06-20T04:48:37.788Z,8872.00
2019-06-20T04:49:37.795Z,8728.00
2019-06-20T04:50:37.785Z,8596.00
2019-06-20T04:51:37.810Z,8516.00
2019-06-20T04:52:37.797Z,8456.00
2019-06-20T04:53:37.784Z,8452.00
2019-06-20T04:54:37.791Z,8472.00
2019-06-20T04:55:37.874Z,8516.00
2019-06-20T04:56:37.830Z,8592.00
2019-06-20T04:57:37.796Z,8728.00
2019-06-20T04:58:37.980Z,8908.00
2019-06-20T04:59:37.806Z,9152.00
2019-06-20T05:00:37.817Z,9384.00
2019-06-20T05:01:37.825Z,9648.00
2019-06-20T05:02:37.801Z,9940.00
2019-06-20T05:03:37.804Z,10280.00
2019-06-20T05:04:37.809Z,10660.00
2019-06-20T05:05:37.806Z,11048.00
2019-06-20T05:06:37.832Z,11572.00
2019-06-20T05:07:37.811Z,12020.00
2019-06-20T05:08:37.820Z,12284.00
2019-06-20T05:09:37.808Z,12584.00
2019-06-20T05:10:37.810Z,12848.00
2019-06-20T05:11:37.842Z,13092.00
2019-06-20T05:12:37.820Z,13348.00
2019-06-20T05:13:37.823Z,13540.00
2019-06-20T05:14:37.819Z,13692.00
2019-06-20T05:15:51.505Z,13756.00
2019-06-20T05:16:37.862Z,13768.00
2019-06-20T05:17:37.836Z,13720.00
2019-06-20T05:18:37.837Z,13680.00
2019-06-20T05:19:37.831Z,13640.00
2019-06-20T05:20:37.835Z,13608.00
2019-06-20T05:21:37.876Z,13564.00
2019-06-20T05:22:37.845Z,13468.00
2019-06-20T05:23:37.881Z,13376.00
2019-06-20T05:24:37.847Z,13368.00
2019-06-20T05:25:37.859Z,13448.00
2019-06-20T05:26:37.849Z,13640.00
2019-06-20T05:27:37.881Z,13932.00
2019-06-20T05:28:37.962Z,14292.00
2019-06-20T05:29:37.854Z,14584.00
2019-06-20T05:30:37.863Z,14888.00
2019-06-20T05:31:37.855Z,15064.00
2019-06-20T05:32:37.895Z,15244.00
2019-06-20T05:33:37.865Z,15440.00
2019-06-20T05:34:37.864Z,15628.00
2019-06-20T05:35:37.864Z,15864.00
2019-06-20T05:36:37.881Z,16080.00
2019-06-20T05:37:37.904Z,16364.00
2019-06-20T05:38:37.884Z,16740.00
2019-06-20T05:39:37.883Z,17240.00
2019-06-20T05:40:37.878Z,18208.00
2019-06-20T05:41:37.891Z,18528.00
2019-06-20T05:42:37.916Z,18624.00
2019-06-20T05:43:37.899Z,18752.00
2019-06-20T05:44:37.904Z,18912.00
2019-06-20T05:45:37.892Z,19168.00
2019-06-20T05:46:37.906Z,19392.00
2019-06-20T05:47:37.935Z,19552.00
2019-06-20T05:48:38.013Z,19616.00
2019-06-20T05:49:37.911Z,19584.00
2019-06-20T05:50:37.907Z,19520.00
2019-06-20T05:51:39.855Z,19616.00
2019-06-20T05:52:37.943Z,19584.00
2019-06-20T05:53:37.926Z,19488.00
2019-06-20T05:54:37.926Z,19680.00
2019-06-20T05:55:37.926Z,19840.00
2019-06-20T05:56:37.933Z,19968.00
2019-06-20T05:57:37.959Z,20160.00
2019-06-20T05:58:37.930Z,20384.00
2019-06-20T05:59:37.934Z,20288.00
2019-06-20T06:00:37.939Z,19552.00
2019-06-20T06:01:37.946Z,18880.00
2019-06-20T06:02:37.976Z,18400.00
2019-06-20T06:03:37.955Z,17984.00
2019-06-20T06:04:37.946Z,17252.00
2019-06-20T06:05:37.956Z,16756.00
2019-06-20T06:06:37.964Z,16368.00
2019-06-20T06:07:37.995Z,15872.00
2019-06-20T06:08:37.965Z,15244.00
2019-06-20T06:09:37.991Z,14756.00
2019-06-20T06:10:37.975Z,14184.00
2019-06-20T06:11:37.980Z,14084.00
2019-06-20T06:12:37.988Z,13772.00
2019-06-20T06:13:38.301Z,14612.00
2019-06-20T06:14:37.983Z,14732.00
2019-06-20T06:15:37.993Z,14664.00
2019-06-20T06:16:37.998Z,15100.00
2019-06-20T06:17:38.698Z,16296.00
2019-06-20T06:18:38.027Z,16100.00
2019-06-20T06:19:38.008Z,15468.00
2019-06-20T06:20:38.009Z,15904.00
2019-06-20T06:21:38.025Z,14784.00
2019-06-20T06:22:38.028Z,13228.00
2019-06-20T06:23:38.051Z,14636.00
2019-06-20T06:24:38.029Z,15440.00
2019-06-20T06:25:38.028Z,14512.00
2019-06-20T06:26:38.033Z,14388.00
2019-06-20T06:27:38.056Z,13264.00
2019-06-20T06:28:38.071Z,10504.00
2019-06-20T06:29:38.053Z,11900.00
2019-06-20T06:30:38.060Z,15172.00
2019-06-20T06:31:38.052Z,15372.00
2019-06-20T06:32:40.326Z,14928.00
2019-06-20T06:33:38.091Z,14940.00
2019-06-20T06:34:38.075Z,15384.00
2019-06-20T06:35:38.071Z,14928.00
2019-06-20T06:36:38.076Z,13768.00
2019-06-20T06:37:38.083Z,12736.00
2019-06-20T06:38:38.118Z,11060.00
2019-06-20T06:39:38.093Z,11904.00
2019-06-20T06:40:38.106Z,10324.00
2019-06-20T06:41:38.099Z,12312.00
2019-06-20T06:42:38.112Z,14496.00
2019-06-20T06:43:41.892Z,10296.00
2019-06-20T06:44:38.116Z,14972.00
2019-06-20T06:45:38.125Z,11172.00
2019-06-20T06:46:44.763Z,13440.00
2019-06-20T06:47:38.133Z,17280.00
2019-06-20T06:48:38.178Z,17736.00
2019-06-20T06:49:38.143Z,17676.00
2019-06-20T06:50:38.146Z,17784.00
2019-06-20T06:51:38.395Z,18280.00
2019-06-20T06:52:38.153Z,18880.00
2019-06-20T06:53:38.186Z,18720.00
2019-06-20T06:54:38.161Z,18496.00
2019-06-20T06:55:38.169Z,17864.00
2019-06-20T06:56:38.182Z,17480.00
2019-06-20T06:57:38.184Z,16840.00
2019-06-20T06:58:38.211Z,16556.00
2019-06-20T06:59:38.195Z,17212.00
2019-06-20T07:00:38.202Z,17404.00
2019-06-20T07:01:38.201Z,17648.00
2019-06-20T07:02:38.209Z,17792.00
2019-06-20T07:03:38.241Z,18464.00
2019-06-20T07:04:38.226Z,17936.00
2019-06-20T07:05:38.249Z,19680.00
2019-06-20T07:06:38.230Z,19936.00
2019-06-20T07:07:38.241Z,21728.00
2019-06-20T07:08:38.272Z,21792.00
2019-06-20T07:09:38.247Z,21536.00
2019-06-20T07:10:38.252Z,21856.00
2019-06-20T07:11:38.263Z,21472.00
2019-06-20T07:12:38.282Z,19680.00
2019-06-20T07:13:38.305Z,19104.00
2019-06-20T07:14:42.387Z,17984.00
2019-06-20T07:15:38.288Z,20192.00
2019-06-20T07:16:38.292Z,20736.00
2019-06-20T07:17:38.304Z,21024.00
2019-06-20T07:18:38.337Z,21024.00
2019-06-20T07:19:38.320Z,20384.00
2019-06-20T07:20:38.329Z,19168.00
2019-06-20T07:21:38.334Z,20960.00
2019-06-20T07:22:38.333Z,20736.00
2019-06-20T07:23:38.375Z,21280.00
2019-06-20T07:24:38.352Z,21856.00
2019-06-20T07:25:38.375Z,22336.00
2019-06-20T07:26:38.369Z,22784.00
2019-06-20T07:27:38.372Z,22624.00
2019-06-20T07:28:38.416Z,20320.00
2019-06-20T07:29:38.389Z,20416.00
2019-06-20T07:30:38.402Z,17724.00
2019-06-20T07:31:38.435Z,21472.00
2019-06-20T07:32:38.413Z,19040.00
2019-06-20T07:33:38.422Z,18688.00
2019-06-20T07:34:38.457Z,23584.00
2019-06-20T07:35:41.757Z,26144.00
2019-06-20T07:36:38.446Z,34848.00
2019-06-20T07:37:38.458Z,39840.00
2019-06-20T07:38:38.469Z,49152.00
2019-06-20T07:39:38.507Z,58784.00
2019-06-20T07:40:38.479Z,67968.00
2019-06-20T07:41:38.490Z,76576.00
2019-06-20T07:42:38.491Z,83520.00
2019-06-20T07:43:38.499Z,87840.00
2019-06-20T07:44:38.547Z,81120.00
2019-06-20T07:45:38.520Z,73056.00
2019-06-20T07:46:38.529Z,77312.00
2019-06-20T07:47:38.546Z,66176.00
2019-06-20T07:48:38.545Z,49760.00
2019-06-20T07:49:38.587Z,55552.00
2019-06-20T07:50:39.427Z,55904.00
2019-06-20T07:51:38.573Z,45696.00
2019-06-20T07:52:38.581Z,35200.00
2019-06-20T07:53:38.593Z,28256.00
2019-06-20T07:54:38.635Z,28768.00
2019-06-20T07:55:38.609Z,28352.00
2019-06-20T07:56:38.623Z,29024.00
2019-06-20T07:57:38.637Z,49600.00
2019-06-20T07:58:38.647Z,60384.00
2019-06-20T07:59:38.688Z,55584.00
2019-06-20T08:00:38.677Z,54688.00
2019-06-20T08:01:38.669Z,53248.00
2019-06-20T08:02:38.676Z,49696.00
2019-06-20T08:03:38.694Z,38432.00
2019-06-20T08:04:38.732Z,33696.00
2019-06-20T08:05:38.713Z,35008.00
2019-06-20T08:06:38.723Z,39904.00
2019-06-20T08:07:38.727Z,35552.00
2019-06-20T08:08:38.759Z,33984.00
2019-06-20T08:09:44.827Z,33760.00
2019-06-20T08:10:38.764Z,36448.00
2019-06-20T08:11:38.775Z,36352.00
2019-06-20T08:12:38.787Z,39264.00
2019-06-20T08:13:38.790Z,39136.00
2019-06-20T08:14:38.847Z,65920.00
2019-06-20T08:15:38.809Z,55968.00
2019-06-20T08:16:38.814Z,51360.00
2019-06-20T08:17:38.831Z,48992.00
2019-06-20T08:18:38.865Z,50752.00
2019-06-20T08:19:38.885Z,53568.00
2019-06-20T08:20:38.851Z,48288.00
2019-06-20T08:21:38.865Z,42208.00
2019-06-20T08:22:38.870Z,41792.00
2019-06-20T08:23:38.879Z,41376.00
2019-06-20T08:24:38.933Z,41376.00
2019-06-20T08:25:38.900Z,40352.00
2019-06-20T08:26:38.914Z,40352.00
2019-06-20T08:27:38.921Z,39840.00
2019-06-20T08:28:38.936Z,38528.00
2019-06-20T08:29:38.972Z,39072.00
2019-06-20T08:30:38.958Z,37376.00
2019-06-20T08:31:38.959Z,37024.00
2019-06-20T08:32:38.974Z,36864.00
2019-06-20T08:33:38.982Z,36800.00
2019-06-20T08:34:39.033Z,37024.00
2019-06-20T08:35:38.994Z,38144.00
2019-06-20T08:36:39.015Z,38592.00
2019-06-20T08:37:39.014Z,39872.00
2019-06-20T08:38:39.026Z,39296.00
2019-06-20T08:39:39.067Z,39040.00
2019-06-20T08:40:39.056Z,40896.00
2019-06-20T08:41:39.058Z,41472.00
2019-06-20T08:42:39.062Z,41216.00
2019-06-20T08:43:39.072Z,39296.00
2019-06-20T08:44:39.115Z,39232.00
2019-06-20T08:45:39.083Z,39712.00
2019-06-20T08:46:39.098Z,39072.00
2019-06-20T08:47:39.108Z,39072.00
2019-06-20T08:48:39.116Z,39488.00
2019-06-20T08:49:39.165Z,39200.00
2019-06-20T08:50:39.158Z,39040.00
2019-06-20T08:51:39.156Z,38304.00
2019-06-20T08:52:39.171Z,37952.00
2019-06-20T08:53:39.157Z,37632.00
2019-06-20T08:54:39.210Z,37728.00
2019-06-20T08:55:39.232Z,38688.00
2019-06-20T08:56:39.184Z,40928.00
2019-06-20T08:57:39.191Z,40576.00
2019-06-20T08:58:39.202Z,40672.00
2019-06-20T08:59:39.215Z,40384.00
2019-06-20T09:00:39.268Z,40576.00
2019-06-20T09:01:39.232Z,39168.00
2019-06-20T09:02:39.249Z,38880.00
2019-06-20T09:03:39.244Z,38784.00
2019-06-20T09:04:39.261Z,38816.00
2019-06-20T09:05:39.298Z,39808.00
2019-06-20T09:06:39.276Z,41024.00
2019-06-20T09:07:41.762Z,44224.00
2019-06-20T09:08:39.293Z,41984.00
2019-06-20T09:09:39.318Z,39616.00
2019-06-20T09:10:39.343Z,38752.00
2019-06-20T09:11:39.315Z,38144.00
2019-06-20T09:12:39.327Z,38016.00
2019-06-20T09:13:40.672Z,37728.00
2019-06-20T09:14:39.360Z,36992.00
2019-06-20T09:15:39.384Z,37024.00
2019-06-20T09:16:39.365Z,37536.00
2019-06-20T09:17:39.368Z,36672.00
2019-06-20T09:18:39.382Z,36256.00
2019-06-20T09:19:39.411Z,36896.00
2019-06-20T09:20:39.447Z,37088.00
2019-06-20T09:21:39.403Z,38336.00
2019-06-20T09:22:39.410Z,40992.00
2019-06-20T09:23:39.417Z,42080.00
2019-06-20T09:24:39.435Z,42560.00
2019-06-20T09:25:39.470Z,43488.00
2019-06-20T09:26:39.448Z,45312.00
2019-06-20T09:27:39.459Z,43840.00
2019-06-20T09:28:39.461Z,44480.00
2019-06-20T09:29:41.955Z,44960.00
2019-06-20T09:30:39.515Z,50752.00
2019-06-20T09:31:39.493Z,50496.00
2019-06-20T09:32:39.497Z,45952.00
2019-06-20T09:33:39.503Z,49888.00
2019-06-20T09:34:39.521Z,55360.00
2019-06-20T09:35:39.553Z,52480.00
2019-06-20T09:36:39.537Z,54080.00
2019-06-20T09:37:39.541Z,58368.00
2019-06-20T09:38:39.546Z,56160.00
2019-06-20T09:39:39.562Z,57760.00
2019-06-20T09:40:39.602Z,51008.00
2019-06-20T09:41:39.580Z,47712.00
2019-06-20T09:42:39.588Z,53888.00
2019-06-20T09:43:39.599Z,58560.00
2019-06-20T09:44:39.611Z,69504.00
2019-06-20T09:45:39.650Z,69888.00
2019-06-20T09:46:39.622Z,72288.00
2019-06-20T09:47:39.856Z,76576.00
2019-06-20T09:48:39.640Z,77952.00
2019-06-20T09:49:39.656Z,75104.00
2019-06-20T09:50:39.694Z,69376.00
2019-06-20T09:51:39.672Z,68832.00
2019-06-20T09:52:39.714Z,66688.00
2019-06-20T09:53:39.694Z,70944.00
2019-06-20T09:54:39.721Z,69280.00
2019-06-20T09:55:39.742Z,67488.00
2019-06-20T09:56:39.735Z,69920.00
2019-06-20T09:57:39.746Z,73440.00
2019-06-20T09:58:39.753Z,62624.00
2019-06-20T09:59:39.767Z,52608.00
2019-06-20T10:00:39.801Z,55200.00
2019-06-20T10:01:39.780Z,79040.00
2019-06-20T10:02:39.788Z,82048.00
2019-06-20T10:03:39.800Z,83840.00
2019-06-20T10:04:39.813Z,80768.00
2019-06-20T10:05:39.884Z,76576.00
2019-06-20T10:06:39.869Z,71072.00
2019-06-20T10:07:39.841Z,74816.00
2019-06-20T10:08:39.863Z,56704.00
2019-06-20T10:09:39.873Z,60448.00
2019-06-20T10:10:39.884Z,59008.00
2019-06-20T10:11:39.917Z,63392.00
2019-06-20T10:12:39.937Z,55872.00
2019-06-20T10:13:39.912Z,54144.00
2019-06-20T10:14:39.933Z,62944.00
2019-06-20T10:15:39.939Z,71104.00
2019-06-20T10:16:45.798Z,65504.00
2019-06-20T10:17:39.964Z,79648.00
2019-06-20T10:18:39.967Z,83776.00
2019-06-20T10:19:39.982Z,76832.00
2019-06-20T10:20:39.988Z,79904.00
2019-06-20T10:21:40.032Z,79424.00
2019-06-20T10:22:40.016Z,76448.00
2019-06-20T10:23:40.029Z,79456.00
2019-06-20T10:24:40.037Z,83616.00
2019-06-20T10:25:40.049Z,81152.00
2019-06-20T10:26:40.098Z,80032.00
2019-06-20T10:27:40.069Z,80544.00
2019-06-20T10:28:40.082Z,68896.00
2019-06-20T10:29:40.089Z,64736.00
2019-06-20T10:30:40.113Z,66272.00
2019-06-20T10:31:40.147Z,63904.00
2019-06-20T10:32:40.140Z,65504.00
2019-06-20T10:33:40.142Z,65504.00
2019-06-20T10:34:40.170Z,66432.00
2019-06-20T10:35:40.164Z,65536.00
2019-06-20T10:36:40.208Z,58400.00
2019-06-20T10:37:40.190Z,65216.00
2019-06-20T10:38:40.201Z,73600.00
2019-06-20T10:39:40.210Z,76544.00
2019-06-20T10:40:40.239Z,81056.00
2019-06-20T10:41:40.264Z,79296.00
2019-06-20T10:42:40.243Z,102688.00
2019-06-20T10:43:40.263Z,93984.00
2019-06-20T10:44:40.274Z,101728.00
2019-06-20T10:45:40.276Z,98368.00
2019-06-20T10:46:40.316Z,86816.00
2019-06-20T10:47:40.302Z,89280.00
2019-06-20T10:48:42.508Z,119168.00
2019-06-20T10:49:42.921Z,118944.00
2019-06-20T10:50:40.948Z,118720.00
2019-06-20T10:51:42.339Z,125376.00
2019-06-20T10:52:40.997Z,138912.00
2019-06-20T10:53:40.375Z,136224.00
2019-06-20T10:54:41.610Z,48128.00
2019-06-20T10:55:41.646Z,70496.00
2019-06-20T10:56:41.814Z,146144.00
2019-06-20T10:57:41.823Z,149088.00
2019-06-20T10:58:41.635Z,148320.00
2019-06-20T10:59:41.542Z,104352.00
2019-06-20T11:00:41.783Z,47648.00
2019-06-20T11:01:41.592Z,140096.00
2019-06-20T11:02:41.715Z,139296.00
2019-06-20T11:03:41.870Z,135904.00
2019-06-20T11:04:41.143Z,119040.00
2019-06-20T11:05:40.923Z,76992.00
2019-06-20T11:06:41.655Z,106272.00
2019-06-20T11:07:42.057Z,109024.00
2019-06-20T11:08:41.692Z,115840.00
2019-06-20T11:09:41.269Z,119200.00
2019-06-20T11:10:42.219Z,91264.00
2019-06-20T11:11:41.774Z,72736.00
2019-06-20T11:12:47.925Z,84352.00
2019-06-20T11:13:40.663Z,79744.00
2019-06-20T11:14:42.064Z,44160.00
2019-06-20T11:15:42.152Z,70240.00
2019-06-20T11:16:42.142Z,70720.00
2019-06-20T11:17:41.904Z,70400.00
2019-06-20T11:18:41.336Z,76256.00
2019-06-20T11:19:41.588Z,85920.00
2019-06-20T11:20:41.390Z,95552.00
2019-06-20T11:21:41.620Z,104352.00
2019-06-20T11:22:41.603Z,108160.00
2019-06-20T11:23:40.922Z,62752.00
2019-06-20T11:24:42.698Z,100864.00
2019-06-20T11:25:41.964Z,99744.00
2019-06-20T11:26:41.120Z,79328.00
2019-06-20T11:27:40.884Z,79232.00
2019-06-20T11:28:41.431Z,96160.00
2019-06-20T11:29:41.653Z,111200.00
2019-06-20T11:30:53.073Z,118848.00
2019-06-20T11:31:44.228Z,107744.00
2019-06-20T11:32:41.052Z,89504.00
2019-06-20T11:33:42.112Z,93472.00
2019-06-20T11:34:42.559Z,73792.00
2019-06-20T11:35:41.840Z,59264.00
2019-06-20T11:36:42.321Z,51968.00
2019-06-20T11:37:42.287Z,64544.00
2019-06-20T11:38:42.464Z,69728.00
2019-06-20T11:39:41.135Z,75424.00
2019-06-20T11:40:41.642Z,99072.00
2019-06-20T11:41:41.661Z,82976.00
2019-06-20T11:42:41.977Z,51552.00
2019-06-20T11:43:42.166Z,112288.00
2019-06-20T11:44:41.111Z,102496.00
2019-06-20T11:45:41.123Z,117632.00
2019-06-20T11:46:42.665Z,119808.00
2019-06-20T11:47:42.472Z,110112.00
2019-06-20T11:48:43.033Z,94080.00
2019-06-20T11:49:42.438Z,90176.00
2019-06-20T11:50:42.418Z,118272.00
2019-06-20T11:51:41.929Z,123264.00
2019-06-20T11:52:43.932Z,101024.00
2019-06-20T11:53:42.597Z,103424.00
2019-06-20T11:54:42.465Z,43648.00
2019-06-20T11:55:41.278Z,113664.00
2019-06-20T11:56:41.281Z,104960.00
2019-06-20T11:57:41.335Z,100352.00
2019-06-20T11:58:41.316Z,130368.00
2019-06-20T11:59:41.341Z,120224.00
2019-06-20T12:00:41.365Z,133600.00
2019-06-20T12:01:42.794Z,140960.00
2019-06-20T12:02:42.765Z,131168.00
2019-06-20T12:03:42.487Z,130944.00
2019-06-20T12:04:41.800Z,123008.00
2019-06-20T12:05:41.924Z,119008.00
2019-06-20T12:06:42.971Z,126432.00
2019-06-20T12:07:43.151Z,115200.00
2019-06-20T12:08:42.389Z,105120.00
2019-06-20T12:09:41.479Z,116192.00